createdAt,value
2019-06-07T00:04:58.999Z,99075.97
2019-06-07T00:10:06.901Z,99079.10
2019-06-07T00:15:24.145Z,99039.42
2019-06-07T00:20:23.900Z,99042.20
2019-06-07T00:25:30.189Z,99033.49
2019-06-07T00:30:45.768Z,99061.91
2019-06-07T00:35:46.309Z,99065.86
2019-06-07T00:40:51.811Z,99058.33
2019-06-07T00:45:57.246Z,99056.97
2019-06-07T00:51:03.634Z,99062.60
2019-06-07T00:56:09.150Z,99045.96
2019-06-07T01:01:19.092Z,99034.06
2019-06-07T01:06:24.976Z,99034.72
2019-06-07T01:11:30.636Z,99041.31
2019-06-07T01:16:55.699Z,99048.47
2019-06-07T01:21:43.675Z,99040.31
2019-06-07T01:26:51.571Z,99050.56
2019-06-07T01:31:57.233Z,99054.62
2019-06-07T01:37:03.095Z,99043.20
2019-06-07T01:42:09.835Z,99019.81
2019-06-07T01:47:15.336Z,99030.51
2019-06-07T01:52:23.502Z,99037.02
2019-06-07T01:57:45.034Z,99033.22
2019-06-07T02:02:35.917Z,99025.70
2019-06-07T02:07:46.595Z,99045.92
2019-06-07T02:12:52.380Z,99040.52
2019-06-07T02:17:59.138Z,99042.27
2019-06-07T02:23:05.294Z,99047.31
2019-06-07T02:28:27.341Z,99048.53
2019-06-07T02:33:24.765Z,99061.80
2019-06-07T02:38:32.619Z,99075.05
2019-06-07T02:43:38.013Z,99072.69
2019-06-07T02:48:43.510Z,99061.14
2019-06-07T02:53:53.676Z,99064.19
2019-06-07T02:58:59.080Z,99064.87
2019-06-07T03:04:05.161Z,99057.05
2019-06-07T03:09:13.486Z,99064.55
2019-06-07T03:14:21.596Z,99069.31
2019-06-07T03:19:37.774Z,99062.52
2019-06-07T03:24:45.339Z,99071.25
2019-06-07T03:29:50.835Z,99071.85
2019-06-07T03:34:56.398Z,99082.36
2019-06-07T03:40:09.159Z,99072.03
2019-06-07T03:45:17.492Z,99074.72
2019-06-07T03:50:24.341Z,99074.39
2019-06-07T03:55:37.780Z,99084.52
2019-06-07T04:00:42.935Z,99086.39
2019-06-07T04:05:46.222Z,99096.63
2019-06-07T04:10:59.796Z,99094.97
2019-06-07T04:15:58.866Z,99086.43
2019-06-07T04:21:04.592Z,99089.79
2019-06-07T04:26:10.063Z,99095.22
2019-06-07T04:31:15.906Z,99094.98
2019-06-07T04:36:39.589Z,99093.70
2019-06-07T04:41:36.685Z,99093.39
2019-06-07T04:46:44.008Z,99094.36
2019-06-07T04:51:50.828Z,99103.48
2019-06-07T04:56:56.243Z,99095.27
2019-06-07T05:02:01.801Z,99097.11
2019-06-07T05:07:10.264Z,99102.37
2019-06-07T05:12:15.933Z,99104.95
2019-06-07T05:17:21.411Z,99101.01
2019-06-07T05:22:28.165Z,99099.64
2019-06-07T05:27:36.435Z,99098.98
2019-06-07T05:32:45.336Z,99100.45
2019-06-07T05:37:48.928Z,99102.81
2019-06-07T05:42:54.489Z,99097.23
2019-06-07T05:48:00.123Z,99095.75
2019-06-07T05:53:07.004Z,99104.18
2019-06-07T05:58:12.498Z,99102.32
2019-06-07T06:03:18.085Z,99105.32
2019-06-07T06:08:26.200Z,99113.61
2019-06-07T06:13:31.797Z,99111.27
2019-06-07T06:18:38.028Z,99099.77
2019-06-07T06:23:45.887Z,99100.42
2019-06-07T06:28:51.319Z,99093.47
2019-06-07T06:33:57.022Z,99091.52
2019-06-07T06:39:04.439Z,99104.59
2019-06-07T06:44:09.981Z,99104.97
2019-06-07T06:49:15.718Z,99110.52
2019-06-07T06:54:39.516Z,99113.47
2019-06-07T06:59:38.807Z,99110.59
2019-06-07T07:04:36.329Z,99103.47
2019-06-07T07:09:47.633Z,99104.04
2019-06-07T07:14:52.960Z,99102.86
2019-06-07T07:19:57.693Z,99112.17
2019-06-07T07:25:03.418Z,99107.94
2019-06-07T07:35:16.558Z,99114.41
2019-06-07T07:40:56.342Z,99120.54
2019-06-07T07:45:29.153Z,99114.50
2019-06-07T07:50:34.759Z,99116.24
2019-06-07T07:55:40.234Z,99117.08
2019-06-07T08:00:53.144Z,99121.50
2019-06-07T08:05:54.938Z,99133.98
2019-06-07T08:11:02.119Z,99127.20
2019-06-07T08:16:14.993Z,99132.31
2019-06-07T08:21:25.374Z,99126.83
2019-06-07T08:26:23.078Z,99128.98
2019-06-07T08:31:28.496Z,99122.13
2019-06-07T08:36:41.993Z,99127.89
2019-06-07T08:41:54.011Z,99130.59
2019-06-07T08:46:56.644Z,99142.22
2019-06-07T08:52:04.573Z,99138.36
2019-06-07T08:57:19.910Z,99137.31
2019-06-07T09:02:23.351Z,99129.84
2019-06-07T09:07:19.904Z,99126.17
2019-06-07T09:12:24.533Z,99121.70
2019-06-07T09:17:30.779Z,99119.38
2019-06-07T09:22:36.355Z,99117.48
2019-06-07T09:27:41.753Z,99104.80
2019-06-07T09:32:47.232Z,99096.37
2019-06-07T09:38:07.706Z,99102.30
2019-06-07T09:43:47.456Z,99093.53
2019-06-07T09:48:13.529Z,99094.37
2019-06-07T09:53:22.295Z,99085.39
2019-06-07T10:03:29.013Z,99083.84
2019-06-07T10:13:44.168Z,99079.91
2019-06-07T10:18:49.686Z,99081.11
2019-06-07T10:23:55.103Z,99075.73
2019-06-07T10:29:01.830Z,99077.59
2019-06-07T10:34:08.471Z,99061.49
2019-06-07T10:39:14.164Z,99052.51
2019-06-07T10:44:19.574Z,99045.90
2019-06-07T10:49:25.113Z,99042.02
2019-06-07T10:54:30.976Z,99034.49
2019-06-07T10:59:36.537Z,99035.56
2019-06-07T11:04:42.045Z,99023.66
2019-06-07T11:10:05.411Z,99017.66
2019-06-07T11:14:56.077Z,99029.57
2019-06-07T11:20:01.766Z,99013.81
2019-06-07T11:25:09.225Z,99003.28
2019-06-07T11:30:15.501Z,98998.31
2019-06-07T11:35:24.265Z,99003.45
2019-06-07T11:40:35.664Z,98999.72
2019-06-07T11:45:36.944Z,98990.86
2019-06-07T11:50:42.420Z,98987.00
2019-06-07T11:55:48.043Z,98980.08
2019-06-07T12:00:53.526Z,98975.72
2019-06-07T12:05:59.233Z,98962.50
2019-06-07T12:11:05.366Z,98953.86
2019-06-07T12:16:11.363Z,98948.23
2019-06-07T12:21:18.026Z,98951.03
2019-06-07T12:26:23.532Z,98948.49
2019-06-07T12:31:29.085Z,98943.37
2019-06-07T12:36:34.651Z,98942.43
2019-06-07T12:41:40.053Z,98944.11
2019-06-07T12:46:47.793Z,98924.36
2019-06-07T12:51:54.673Z,98931.97
2019-06-07T12:57:00.097Z,98913.18
2019-06-07T13:02:07.214Z,98903.88
2019-06-07T13:07:13.266Z,98902.91
2019-06-07T13:12:19.759Z,98894.08
2019-06-07T13:17:25.291Z,98897.45
2019-06-07T13:22:30.688Z,98885.45
2019-06-07T13:27:36.136Z,98888.05
2019-06-07T13:32:41.640Z,98884.18
2019-06-07T13:37:47.152Z,98881.84
2019-06-07T13:42:52.586Z,98875.44
2019-06-07T13:47:58.088Z,98863.52
2019-06-07T13:53:03.756Z,98855.11
2019-06-07T13:58:09.344Z,98857.23
2019-06-07T14:03:14.757Z,98848.50
2019-06-07T14:08:21.096Z,98838.15
2019-06-07T14:13:28.159Z,98849.28
2019-06-07T14:18:33.672Z,98826.92
2019-06-07T14:23:48.787Z,98821.78
2019-06-07T14:28:46.651Z,98812.97
2019-06-07T14:33:52.084Z,98811.37
2019-06-07T14:38:57.547Z,98807.66
2019-06-07T14:44:04.274Z,98801.83
2019-06-07T14:49:09.801Z,98800.28
2019-06-07T14:54:15.413Z,98807.57
2019-06-07T14:59:22.540Z,98798.70
2019-06-07T15:04:28.538Z,98793.94
2019-06-07T15:09:35.231Z,98799.14
2019-06-07T15:14:40.881Z,98801.42
2019-06-07T15:19:47.394Z,98782.72
2019-06-07T15:24:52.921Z,98772.98
2019-06-07T15:29:58.453Z,98773.77
2019-06-07T15:35:04.701Z,98768.00
2019-06-07T15:40:10.976Z,98764.84
2019-06-07T15:45:18.307Z,98768.41
2019-06-07T15:50:23.957Z,98773.09
2019-06-07T15:55:31.895Z,98771.20
2019-06-07T16:00:37.460Z,98776.84
2019-06-07T16:05:43.985Z,98778.82
2019-06-07T16:10:49.501Z,98780.73
2019-06-07T16:15:55.031Z,98780.23
2019-06-07T16:21:02.158Z,98772.17
2019-06-07T16:26:07.629Z,98771.39
2019-06-07T16:31:13.155Z,98763.59
2019-06-07T16:36:18.860Z,98752.51
2019-06-07T16:41:26.157Z,98751.59
2019-06-07T16:46:33.948Z,98747.93
2019-06-07T16:51:39.452Z,98750.16
2019-06-07T16:56:48.097Z,98752.66
2019-06-07T17:01:52.658Z,98750.46
2019-06-07T17:06:58.183Z,98751.19
2019-06-07T17:12:04.854Z,98754.44
2019-06-07T17:17:10.614Z,98753.41
2019-06-07T17:22:19.170Z,98745.57
2019-06-07T17:27:24.633Z,98742.18
2019-06-07T17:32:30.164Z,98741.98
2019-06-07T17:37:35.713Z,98734.34
2019-06-07T17:42:42.651Z,98739.01
2019-06-07T17:47:49.717Z,98727.84
2019-06-07T17:52:55.578Z,98727.17
2019-06-07T17:58:07.693Z,98721.83
2019-06-07T18:03:13.742Z,98728.28
2019-06-07T18:08:19.735Z,98717.61
2019-06-07T18:13:27.007Z,98712.36
2019-06-07T18:18:32.539Z,98711.19
2019-06-07T18:23:39.739Z,98716.81
2019-06-07T18:28:46.597Z,98709.38
2019-06-07T18:33:55.095Z,98714.90
2019-06-07T18:39:01.158Z,98702.16
2019-06-07T18:44:21.159Z,98693.12
2019-06-07T18:49:21.183Z,98689.47
2019-06-07T18:54:27.727Z,98689.98
2019-06-07T18:59:33.757Z,98689.39
2019-06-07T19:04:40.230Z,98679.00
2019-06-07T19:09:46.406Z,98684.30
2019-06-07T19:14:55.466Z,98682.96
2019-06-07T19:20:01.263Z,98687.17
2019-06-07T19:25:09.393Z,98691.38
2019-06-07T19:30:16.087Z,98690.74
2019-06-07T19:35:22.331Z,98694.64
2019-06-07T19:40:27.899Z,98687.22
2019-06-07T19:45:33.977Z,98697.44
2019-06-07T19:50:39.614Z,98705.75
2019-06-07T19:55:46.538Z,98706.03
2019-06-07T20:00:53.375Z,98702.70
2019-06-07T20:06:00.191Z,98691.95
2019-06-07T20:11:08.452Z,98688.63
2019-06-07T20:16:17.194Z,98678.55
2019-06-07T20:21:22.612Z,98668.86
2019-06-07T20:26:28.146Z,98666.20
2019-06-07T20:31:39.292Z,98671.19
2019-06-07T20:36:45.936Z,98673.27
2019-06-07T20:41:52.085Z,98668.22
2019-06-07T20:46:59.906Z,98684.97
2019-06-07T20:52:08.794Z,98684.55
2019-06-07T20:57:15.345Z,98683.70
2019-06-07T21:02:22.077Z,98683.91
2019-06-07T21:07:29.519Z,98690.56
2019-06-07T21:12:35.031Z,98689.81
2019-06-07T21:17:41.272Z,98683.48
2019-06-07T21:22:47.161Z,98676.31
2019-06-07T21:27:52.723Z,98687.83
2019-06-07T21:32:58.538Z,98685.81
2019-06-07T21:38:06.126Z,98678.44
2019-06-07T21:43:14.644Z,98675.50
2019-06-07T21:48:22.595Z,98669.78
2019-06-07T21:53:30.995Z,98680.20
2019-06-07T21:58:37.114Z,98694.89
2019-06-07T22:03:42.618Z,98689.87
2019-06-07T22:08:48.225Z,98690.98
2019-06-07T22:13:53.697Z,98701.99
2019-06-07T22:18:59.096Z,98704.38
2019-06-07T22:24:06.713Z,98719.72
2019-06-07T22:29:12.581Z,98719.52
2019-06-07T22:34:19.183Z,98714.88
2019-06-07T22:39:25.541Z,98718.35
2019-06-07T22:44:31.025Z,98708.29
2019-06-07T22:49:36.585Z,98699.10
2019-06-07T22:54:43.843Z,98702.36
2019-06-07T22:59:49.527Z,98690.80
2019-06-07T23:04:55.695Z,98695.10
2019-06-07T23:10:01.192Z,98707.17
2019-06-07T23:15:07.193Z,98718.42
2019-06-07T23:20:15.924Z,98727.34
2019-06-07T23:25:24.317Z,98722.05
2019-06-07T23:30:28.863Z,98769.39
2019-06-07T23:35:35.418Z,98784.98
2019-06-07T23:40:40.901Z,98793.08
2019-06-07T23:45:46.287Z,98806.13
2019-06-07T23:50:51.771Z,98812.73
2019-06-07T23:55:57.297Z,98868.98
